KEED/EED METAR and TAF weather

Enter ICAO airport designator
Station Type Date Time Source
KEED METAR 2022/06/26 07:56 UTC NOAA

KEED 260756Z AUTO 17013KT 10SM CLR 36/11 A2987 RMK AO2 SLP075 T03560106 404330289


Station Type Date Time Source
KEED Decoded METAR 2022/06/26 07:56 UTC NOAA

NEEDLES AIRPORT, CA, United States (KEED) 34-46N 114-37W
Jun 26, 2022 - 03:56 AM EDT / 2022.06.26 0756 UTC
Wind: from the S (170 degrees) at 15 MPH (13 KT):0
Visibility: 10 mile(s):0
Sky conditions: clear
Temperature: 96.1 F (35.6 C)
Dew Point: 51.1 F (10.6 C)
Relative Humidity: 21%
Pressure (altimeter): 29.87 in. Hg (1011 hPa)
ob: KEED 260756Z AUTO 17013KT 10SM CLR 36/11 A2987 RMK AO2 SLP075 T03560106 404330289
cycle: 8

Station Type Date Time Source
KEED TAF 2022/06/26 06:22 UTC NOAA

TAF KEED 260520Z 2606/2706 25008KT P6SM SKC
FM261200 VRB05KT P6SM SCT140
FM261900 20010G16KT P6SM FEW140

Example: see airport list